Time;durP1;ratioP1;P1;durP2;ratioP2;P2;SDS_P1;SDS_P2;PMS_P1;PMS_P2;Temp;Humidity;BMP_temperature;BMP_pressure;BME280_temperature;BME280_humidity;BME280_pressure;Samples;Min_cycle;Max_cycle;Signal;HPM_P1;HPM_P2
2023/10/31 00:02:01;;;;;;;7.57;4.15;;;;;;;;;;5095539;28;20030;-80
2023/10/31 00:04:27;;;;;;;7.85;3.78;;;;;;;;;;5100732;28;20036;-79
2023/10/31 00:06:52;;;;;;;12.90;4.32;;;;;;;;;;5067974;28;20085;-81
2023/10/31 00:09:18;;;;;;;8.05;3.47;;;;;;;;;;5065773;28;20032;-79
2023/10/31 00:11:44;;;;;;;7.70;3.65;;;;;;;;;;5073078;28;20029;-79
2023/10/31 00:14:09;;;;;;;9.23;3.55;;;;;;;;;;5076862;28;20048;-79
2023/10/31 00:16:34;;;;;;;7.78;3.88;;;;;;;;;;5075908;28;20438;-80
2023/10/31 00:19:00;;;;;;;7.15;3.60;;;;;;;;;;5075412;28;20391;-79
2023/10/31 00:21:25;;;;;;;6.93;4.07;;;;;;;;;;5077251;28;20039;-80
2023/10/31 00:23:51;;;;;;;8.77;3.88;;;;;;;;;;5061332;28;20060;-81
2023/10/31 00:26:18;;;;;;;9.10;3.88;;;;;;;;;;5076477;28;20040;-79
2023/10/31 00:28:44;;;;;;;9.85;3.80;;;;;;;;;;5074415;28;20861;-81
2023/10/31 00:31:11;;;;;;;8.20;3.97;;;;;;;;;;5075039;28;20064;-79
2023/10/31 00:33:44;;;;;;;7.55;3.45;;;;;;;;;;5080346;28;20054;-79
2023/10/31 00:36:09;;;;;;;7.57;3.80;;;;;;;;;;5058354;28;20495;-80
2023/10/31 00:38:35;;;;;;;6.97;3.75;;;;;;;;;;5060452;28;20032;-80
2023/10/31 00:41:00;;;;;;;10.00;4.13;;;;;;;;;;5063706;28;20032;-80
2023/10/31 00:43:25;;;;;;;10.95;4.53;;;;;;;;;;5056954;28;20028;-80
2023/10/31 00:45:56;;;;;;;7.45;3.50;;;;;;;;;;5054361;28;20029;-80
2023/10/31 00:48:21;;;;;;;10.23;3.95;;;;;;;;;;5041889;28;20043;-80
2023/10/31 00:50:49;;;;;;;9.63;4.13;;;;;;;;;;5084934;28;20495;-79
2023/10/31 00:53:16;;;;;;;6.65;4.13;;;;;;;;;;5084612;28;20107;-81
2023/10/31 00:55:41;;;;;;;6.90;4.18;;;;;;;;;;5068915;28;20440;-80
2023/10/31 00:58:07;;;;;;;8.60;3.90;;;;;;;;;;5077482;28;20035;-79
2023/10/31 01:00:34;;;;;;;9.10;4.22;;;;;;;;;;5081362;28;20696;-78
2023/10/31 01:02:59;;;;;;;8.88;4.00;;;;;;;;;;5061551;28;20036;-79
2023/10/31 01:05:25;;;;;;;7.95;4.20;;;;;;;;;;5058577;28;20037;-80
2023/10/31 01:07:50;;;;;;;10.68;4.28;;;;;;;;;;5063123;28;20044;-79
2023/10/31 01:10:25;;;;;;;6.95;4.20;;;;;;;;;;5073396;28;20115;-78
2023/10/31 01:12:51;;;;;;;9.30;4.18;;;;;;;;;;5046360;28;20467;-79
2023/10/31 01:15:36;;;;;;;10.00;4.32;;;;;;;;;;5054711;28;20036;-79
2023/10/31 01:18:02;;;;;;;6.60;4.18;;;;;;;;;;5010820;28;20038;-80
2023/10/31 01:20:27;;;;;;;7.47;3.97;;;;;;;;;;4998598;28;20045;-80
2023/10/31 01:22:53;;;;;;;8.40;4.35;;;;;;;;;;5004000;28;20030;-79
2023/10/31 01:25:18;;;;;;;8.82;4.47;;;;;;;;;;4997837;28;20505;-79
2023/10/31 01:27:43;;;;;;;10.05;4.50;;;;;;;;;;4989206;28;20124;-80
2023/10/31 01:30:12;;;;;;;7.60;4.40;;;;;;;;;;4989534;28;20313;-80
2023/10/31 01:32:37;;;;;;;10.05;4.97;;;;;;;;;;4994540;28;20037;-81
2023/10/31 01:35:04;;;;;;;10.18;5.15;;;;;;;;;;4973590;28;20064;-80
2023/10/31 01:37:29;;;;;;;10.02;4.70;;;;;;;;;;5003750;28;20037;-80
2023/10/31 01:39:54;;;;;;;7.85;4.68;;;;;;;;;;4984326;28;20539;-80
2023/10/31 01:42:20;;;;;;;8.98;4.47;;;;;;;;;;4986148;28;20038;-80
2023/10/31 01:44:45;;;;;;;10.00;5.45;;;;;;;;;;5002331;28;20044;-80
2023/10/31 01:47:11;;;;;;;9.98;5.45;;;;;;;;;;5003043;28;20041;-80
2023/10/31 01:49:36;;;;;;;9.20;5.35;;;;;;;;;;4999185;28;20037;-80
2023/10/31 01:52:03;;;;;;;9.43;5.00;;;;;;;;;;4994904;28;20531;-80
2023/10/31 01:54:29;;;;;;;9.05;5.50;;;;;;;;;;5032368;28;20074;-80
2023/10/31 01:56:57;;;;;;;10.15;5.32;;;;;;;;;;5071634;28;20416;-81
2023/10/31 01:59:26;;;;;;;9.45;5.00;;;;;;;;;;5073310;28;20032;-80
2023/10/31 02:01:55;;;;;;;10.13;5.97;;;;;;;;;;5051660;28;20027;-80
2023/10/31 02:04:20;;;;;;;10.00;5.38;;;;;;;;;;5056063;28;20044;-81
2023/10/31 02:06:46;;;;;;;10.05;5.38;;;;;;;;;;5034418;28;20040;-80
2023/10/31 02:09:11;;;;;;;10.75;5.70;;;;;;;;;;5072357;28;20035;-81
2023/10/31 02:11:37;;;;;;;9.98;5.60;;;;;;;;;;5059005;28;20141;-80
2023/10/31 02:14:03;;;;;;;12.88;5.75;;;;;;;;;;5051448;28;20032;-80
2023/10/31 02:16:28;;;;;;;8.75;5.82;;;;;;;;;;5051206;28;20029;-81
2023/10/31 02:18:54;;;;;;;10.20;5.55;;;;;;;;;;5048695;28;20063;-81
2023/10/31 02:21:20;;;;;;;13.25;5.85;;;;;;;;;;5092593;28;20065;-81
2023/10/31 02:24:02;;;;;;;13.10;6.13;;;;;;;;;;5082057;28;20081;-81
2023/10/31 02:26:33;;;;;;;11.18;5.82;;;;;;;;;;5064121;28;20060;-81
2023/10/31 02:28:58;;;;;;;10.30;6.00;;;;;;;;;;5058512;28;20040;-81
2023/10/31 02:31:24;;;;;;;10.45;6.18;;;;;;;;;;5077993;28;20024;-81
2023/10/31 02:33:50;;;;;;;11.60;6.38;;;;;;;;;;5046961;28;20040;-82
2023/10/31 02:36:18;;;;;;;12.00;6.72;;;;;;;;;;5061340;28;20036;-81
2023/10/31 02:38:44;;;;;;;10.00;5.88;;;;;;;;;;5079124;28;20043;-81
2023/10/31 02:41:10;;;;;;;11.70;6.10;;;;;;;;;;5066838;28;20035;-81
2023/10/31 02:43:38;;;;;;;10.63;6.40;;;;;;;;;;5086661;28;20036;-81
2023/10/31 02:46:03;;;;;;;11.32;6.25;;;;;;;;;;5062722;28;20063;-81
2023/10/31 02:48:31;;;;;;;11.02;6.20;;;;;;;;;;5059468;28;20051;-82
2023/10/31 02:50:57;;;;;;;;;;;;;;;;;;5074328;28;20048;-81
2023/10/31 02:53:23;;;;;;;10.15;6.00;;;;;;;;;;5064233;28;19916;-82
2023/10/31 02:55:48;;;;;;;11.38;6.72;;;;;;;;;;5067472;28;20713;-81
2023/10/31 02:58:14;;;;;;;12.40;6.57;;;;;;;;;;5076342;28;20120;-80
2023/10/31 03:00:39;;;;;;;11.05;6.57;;;;;;;;;;5080012;28;20040;-80
2023/10/31 03:03:04;;;;;;;13.13;7.20;;;;;;;;;;5099400;28;20029;-81
2023/10/31 03:05:30;;;;;;;11.43;6.55;;;;;;;;;;5065016;28;20514;-82
2023/10/31 03:07:55;;;;;;;10.27;6.78;;;;;;;;;;5080425;28;20035;-82
2023/10/31 03:10:23;;;;;;;13.05;6.93;;;;;;;;;;5089366;28;20040;-80
2023/10/31 03:12:49;;;;;;;12.00;6.55;;;;;;;;;;5084817;28;20055;-80
2023/10/31 03:15:14;;;;;;;12.45;6.82;;;;;;;;;;5097306;28;20067;-80
2023/10/31 03:17:45;;;;;;;13.25;7.10;;;;;;;;;;5079760;28;20063;-80
2023/10/31 03:20:11;;;;;;;14.45;7.20;;;;;;;;;;5080319;28;20031;-80
2023/10/31 03:22:36;;;;;;;11.48;6.38;;;;;;;;;;5080547;28;20024;-81
2023/10/31 03:25:02;;;;;;;11.77;6.75;;;;;;;;;;5072274;28;20063;-82
2023/10/31 03:27:28;;;;;;;14.60;7.28;;;;;;;;;;5080807;28;20048;-81
2023/10/31 03:29:53;;;;;;;11.40;6.60;;;;;;;;;;5060977;28;20506;-82
2023/10/31 03:32:18;;;;;;;11.98;7.50;;;;;;;;;;5099366;28;20039;-80
2023/10/31 03:37:30;;;;;;;12.93;7.60;;;;;;;;;;5096498;28;20031;-82
2023/10/31 03:39:55;;;;;;;13.30;7.05;;;;;;;;;;5097345;28;20035;-82
2023/10/31 03:42:38;;;;;;;11.48;7.63;;;;;;;;;;5097982;28;20020;-81
2023/10/31 03:45:04;;;;;;;14.60;7.90;;;;;;;;;;5067389;28;20032;-81
2023/10/31 03:47:30;;;;;;;11.60;7.20;;;;;;;;;;5062406;28;20028;-80
2023/10/31 03:49:56;;;;;;;11.25;6.72;;;;;;;;;;5067717;28;20043;-82
2023/10/31 03:52:21;;;;;;;11.50;7.65;;;;;;;;;;5097027;28;20387;-80
2023/10/31 03:54:46;;;;;;;10.75;6.70;;;;;;;;;;5083661;28;20085;-81
2023/10/31 03:57:13;;;;;;;11.77;7.35;;;;;;;;;;5066678;28;20027;-81
2023/10/31 03:59:38;;;;;;;11.30;7.30;;;;;;;;;;5082580;28;20548;-80
2023/10/31 04:02:04;;;;;;;11.27;7.07;;;;;;;;;;5095131;28;20040;-82
2023/10/31 04:04:29;;;;;;;10.60;7.00;;;;;;;;;;5077488;28;20032;-81
2023/10/31 04:06:55;;;;;;;9.38;6.72;;;;;;;;;;5075456;28;20135;-81
2023/10/31 04:09:20;;;;;;;13.50;7.63;;;;;;;;;;5072288;28;20047;-81
2023/10/31 04:11:45;;;;;;;10.90;7.50;;;;;;;;;;5052734;28;20064;-80
2023/10/31 04:14:11;;;;;;;12.52;7.22;;;;;;;;;;5076598;28;20036;-80
2023/10/31 04:16:47;;;;;;;9.77;6.90;;;;;;;;;;5096347;28;20458;-81
2023/10/31 04:19:15;;;;;;;12.50;7.95;;;;;;;;;;5053956;28;20032;-81
2023/10/31 04:21:41;;;;;;;11.95;7.70;;;;;;;;;;5045101;28;20046;-80
2023/10/31 04:24:06;;;;;;;14.25;7.57;;;;;;;;;;5070833;28;20380;-80
2023/10/31 04:26:36;;;;;;;12.73;7.32;;;;;;;;;;5078758;28;20031;-80
2023/10/31 04:29:06;;;;;;;12.55;7.50;;;;;;;;;;5066971;28;20040;-81
2023/10/31 04:31:32;;;;;;;16.17;8.65;;;;;;;;;;5073519;28;20465;-80
2023/10/31 04:34:00;;;;;;;12.95;8.10;;;;;;;;;;5069666;28;20036;-81
2023/10/31 04:36:25;;;;;;;15.18;8.05;;;;;;;;;;5060970;28;20500;-81
2023/10/31 04:38:51;;;;;;;12.13;9.25;;;;;;;;;;5080175;28;20092;-80
2023/10/31 04:41:22;;;;;;;12.32;8.45;;;;;;;;;;5070103;28;20078;-81
2023/10/31 04:43:47;;;;;;;13.50;8.60;;;;;;;;;;5053257;28;20107;-80
2023/10/31 04:46:13;;;;;;;13.75;8.75;;;;;;;;;;5051792;28;20148;-80
2023/10/31 04:48:38;;;;;;;13.30;8.05;;;;;;;;;;5080429;28;20102;-81
2023/10/31 04:51:04;;;;;;;15.30;8.98;;;;;;;;;;5065897;28;20741;-81
2023/10/31 04:53:32;;;;;;;13.18;8.48;;;;;;;;;;5079193;28;20426;-81
2023/10/31 04:55:57;;;;;;;15.85;9.10;;;;;;;;;;5069607;28;20035;-80
2023/10/31 04:58:22;;;;;;;16.35;9.07;;;;;;;;;;5099473;28;20031;-82
2023/10/31 05:00:48;;;;;;;13.93;8.68;;;;;;;;;;5082382;28;20074;-81
2023/10/31 05:03:16;;;;;;;12.80;8.63;;;;;;;;;;5068376;28;20028;-83
2023/10/31 05:05:41;;;;;;;12.18;8.68;;;;;;;;;;5078079;28;20028;-82
2023/10/31 05:08:07;;;;;;;13.00;8.70;;;;;;;;;;5078030;28;20063;-82
2023/10/31 05:10:33;;;;;;;13.32;9.25;;;;;;;;;;5078583;28;20498;-84
2023/10/31 05:12:58;;;;;;;17.42;10.30;;;;;;;;;;5046556;28;20044;-85
2023/10/31 05:15:24;;;;;;;13.80;9.55;;;;;;;;;;5062049;28;20055;-85
2023/10/31 05:17:49;;;;;;;17.60;10.02;;;;;;;;;;5078140;28;20135;-86
2023/10/31 05:20:14;;;;;;;14.85;9.88;;;;;;;;;;5065597;28;20493;-85
2023/10/31 05:22:41;;;;;;;12.98;9.63;;;;;;;;;;5073367;28;20032;-86
2023/10/31 05:25:08;;;;;;;12.95;9.60;;;;;;;;;;5057405;28;20034;-85
2023/10/31 05:27:33;;;;;;;16.38;10.20;;;;;;;;;;5045288;28;20084;-84
2023/10/31 05:29:59;;;;;;;15.98;9.85;;;;;;;;;;5073335;28;20402;-86
2023/10/31 05:32:24;;;;;;;13.98;9.50;;;;;;;;;;5057931;28;20152;-85
2023/10/31 05:34:53;;;;;;;14.18;9.07;;;;;;;;;;5091626;28;20035;-84
2023/10/31 05:37:19;;;;;;;13.90;9.18;;;;;;;;;;5070435;28;20080;-79
2023/10/31 05:39:44;;;;;;;12.55;8.80;;;;;;;;;;5093914;28;20043;-81
2023/10/31 05:42:09;;;;;;;11.52;7.82;;;;;;;;;;5084274;28;20043;-79
2023/10/31 05:44:35;;;;;;;12.25;8.23;;;;;;;;;;5060928;28;20039;-80
2023/10/31 05:47:00;;;;;;;11.13;7.82;;;;;;;;;;5068043;28;20047;-80
2023/10/31 05:49:26;;;;;;;12.90;7.70;;;;;;;;;;5058503;28;20486;-79
2023/10/31 05:51:52;;;;;;;11.55;7.75;;;;;;;;;;5063906;28;20069;-80
2023/10/31 05:54:18;;;;;;;12.43;7.65;;;;;;;;;;5055720;28;20047;-80
2023/10/31 05:56:44;;;;;;;11.15;7.97;;;;;;;;;;5064354;28;21089;-79
2023/10/31 05:59:10;;;;;;;11.65;7.97;;;;;;;;;;5087068;28;20391;-80
2023/10/31 06:01:36;;;;;;;10.25;7.55;;;;;;;;;;5069559;28;20432;-79
2023/10/31 06:04:01;;;;;;;11.00;7.55;;;;;;;;;;5063509;28;20036;-80
2023/10/31 06:06:27;;;;;;;10.77;7.45;;;;;;;;;;5076634;28;20119;-80
2023/10/31 06:08:55;;;;;;;11.02;7.57;;;;;;;;;;5068930;28;20042;-80
2023/10/31 06:11:20;;;;;;;11.48;7.63;;;;;;;;;;5070396;28;20531;-81
2023/10/31 06:13:47;;;;;;;10.15;7.07;;;;;;;;;;5052810;28;20036;-80
2023/10/31 06:16:13;;;;;;;10.50;7.25;;;;;;;;;;5063242;28;20032;-80
2023/10/31 06:18:40;;;;;;;9.65;6.88;;;;;;;;;;5062863;28;20036;-80
2023/10/31 06:21:05;;;;;;;9.07;6.85;;;;;;;;;;5063148;28;20384;-81
2023/10/31 06:23:38;;;;;;;9.13;7.20;;;;;;;;;;5066012;28;20117;-81
2023/10/31 06:26:30;;;;;;;9.20;6.43;;;;;;;;;;5057155;28;20028;-81
2023/10/31 06:29:05;;;;;;;10.43;6.55;;;;;;;;;;5058358;28;20044;-80
2023/10/31 06:31:30;;;;;;;9.27;6.72;;;;;;;;;;5066750;28;20466;-79
2023/10/31 06:34:04;;;;;;;9.68;6.30;;;;;;;;;;5055532;28;20068;-80
2023/10/31 06:36:30;;;;;;;10.77;6.90;;;;;;;;;;5058745;28;20040;-78
2023/10/31 06:38:56;;;;;;;9.13;6.80;;;;;;;;;;5047850;28;20485;-78
2023/10/31 06:41:33;;;;;;;9.63;6.05;;;;;;;;;;5075873;28;20091;-80
2023/10/31 06:43:59;;;;;;;8.35;6.25;;;;;;;;;;5064644;28;20055;-78
2023/10/31 06:46:24;;;;;;;8.50;6.20;;;;;;;;;;5051446;28;20494;-79
2023/10/31 06:48:49;;;;;;;8.77;5.68;;;;;;;;;;5091525;28;20084;-79
2023/10/31 06:51:15;;;;;;;10.70;6.03;;;;;;;;;;5066662;28;20036;-79
2023/10/31 06:53:42;;;;;;;7.63;5.38;;;;;;;;;;5067428;28;20493;-78
2023/10/31 06:56:08;;;;;;;10.38;5.50;;;;;;;;;;5038664;28;20070;-78
2023/10/31 06:58:33;;;;;;;8.70;5.32;;;;;;;;;;5082981;28;20604;-79
2023/10/31 07:01:03;;;;;;;8.68;5.82;;;;;;;;;;5065758;28;20376;-79
2023/10/31 07:03:28;;;;;;;7.20;4.75;;;;;;;;;;5078703;28;20389;-79
2023/10/31 07:06:00;;;;;;;6.40;4.40;;;;;;;;;;5076881;28;20119;-78
2023/10/31 07:08:29;;;;;;;7.15;4.40;;;;;;;;;;5074589;28;20032;-79
2023/10/31 07:10:55;;;;;;;6.18;4.22;;;;;;;;;;5090475;28;20032;-79
2023/10/31 07:13:20;;;;;;;6.47;4.35;;;;;;;;;;5074488;28;20035;-80
2023/10/31 07:15:46;;;;;;;7.65;4.40;;;;;;;;;;5077849;28;20046;-80
2023/10/31 07:18:12;;;;;;;7.63;3.90;;;;;;;;;;5094318;28;20418;-79
2023/10/31 07:20:40;;;;;;;5.70;3.97;;;;;;;;;;5084039;28;20039;-80
2023/10/31 07:23:05;;;;;;;5.25;2.92;;;;;;;;;;5059861;28;20513;-79
2023/10/31 07:25:34;;;;;;;5.22;3.20;;;;;;;;;;5023770;28;20036;-82
2023/10/31 07:28:00;;;;;;;4.65;3.05;;;;;;;;;;5055365;28;20149;-83
2023/10/31 07:30:25;;;;;;;5.05;3.20;;;;;;;;;;5030910;28;20499;-80
2023/10/31 07:32:51;;;;;;;4.35;2.55;;;;;;;;;;5053973;28;20036;-79
2023/10/31 07:35:16;;;;;;;5.28;2.10;;;;;;;;;;5040984;28;20107;-79
2023/10/31 07:37:42;;;;;;;6.32;2.13;;;;;;;;;;5054879;28;20048;-81
2023/10/31 07:40:07;;;;;;;3.58;2.15;;;;;;;;;;5072774;28;20055;-80
2023/10/31 07:42:33;;;;;;;3.92;1.70;;;;;;;;;;5068498;28;20546;-79
2023/10/31 07:45:10;;;;;;;3.67;1.50;;;;;;;;;;5058101;28;20039;-79
2023/10/31 07:47:56;;;;;;;4.32;1.48;;;;;;;;;;5073183;28;20135;-81
2023/10/31 07:50:21;;;;;;;2.58;1.50;;;;;;;;;;4981155;28;20062;-79
2023/10/31 07:52:50;;;;;;;3.88;1.65;;;;;;;;;;4974174;28;20050;-78
2023/10/31 07:55:15;;;;;;;2.70;1.40;;;;;;;;;;4970363;28;20035;-79
2023/10/31 07:57:41;;;;;;;5.70;1.60;;;;;;;;;;4964106;28;20043;-79
2023/10/31 08:00:11;;;;;;;3.65;1.45;;;;;;;;;;4986523;28;20597;-79
2023/10/31 08:02:39;;;;;;;5.03;1.40;;;;;;;;;;4970047;28;20101;-81
2023/10/31 08:05:05;;;;;;;2.70;1.30;;;;;;;;;;4986355;28;20042;-79
2023/10/31 08:07:42;;;;;;;2.10;1.00;;;;;;;;;;4976180;28;20545;-79
2023/10/31 08:10:08;;;;;;;2.28;1.00;;;;;;;;;;4970390;28;20041;-79
2023/10/31 08:12:45;;;;;;;3.15;1.00;;;;;;;;;;4983854;28;20458;-79
2023/10/31 08:15:10;;;;;;;2.28;1.08;;;;;;;;;;4993343;28;20034;-80
2023/10/31 08:17:35;;;;;;;2.75;1.02;;;;;;;;;;4968095;28;20041;-79
2023/10/31 08:20:07;;;;;;;2.20;0.90;;;;;;;;;;4972282;28;20037;-79
2023/10/31 08:22:32;;;;;;;1.40;0.70;;;;;;;;;;4968910;28;20046;-80
2023/10/31 08:24:57;;;;;;;2.13;0.80;;;;;;;;;;4983866;28;20085;-79
2023/10/31 08:27:23;;;;;;;2.33;0.80;;;;;;;;;;5012415;28;20068;-79
2023/10/31 08:29:48;;;;;;;2.17;0.73;;;;;;;;;;5077303;28;20036;-79
2023/10/31 08:32:14;;;;;;;2.22;1.17;;;;;;;;;;5042768;28;20064;-80
2023/10/31 08:34:45;;;;;;;1.83;0.60;;;;;;;;;;5043819;28;20040;-79
2023/10/31 08:37:18;;;;;;;1.50;0.60;;;;;;;;;;5078056;28;20373;-80
2023/10/31 08:39:44;;;;;;;1.90;0.60;;;;;;;;;;5079461;28;20368;-80
2023/10/31 08:42:15;;;;;;;1.73;0.50;;;;;;;;;;5078123;28;20039;-80
2023/10/31 08:44:43;;;;;;;2.90;0.40;;;;;;;;;;5077780;28;20040;-79
2023/10/31 08:47:14;;;;;;;2.42;0.75;;;;;;;;;;5081505;28;20043;-79
2023/10/31 08:49:45;;;;;;;2.55;0.40;;;;;;;;;;5072029;28;20500;-79
2023/10/31 08:52:10;;;;;;;1.25;0.50;;;;;;;;;;5080068;28;20039;-80
2023/10/31 08:54:36;;;;;;;1.73;0.40;;;;;;;;;;5077794;28;20061;-79
2023/10/31 08:57:01;;;;;;;0.98;0.40;;;;;;;;;;5063628;28;20217;-79
2023/10/31 08:59:26;;;;;;;0.70;0.40;;;;;;;;;;5061248;28;20036;-80
2023/10/31 09:02:13;;;;;;;0.82;0.43;;;;;;;;;;5073629;28;20032;-81
2023/10/31 09:04:41;;;;;;;2.75;0.40;;;;;;;;;;5062652;28;20036;-80
2023/10/31 09:07:06;;;;;;;1.45;0.40;;;;;;;;;;5076161;28;20134;-80
2023/10/31 09:09:35;;;;;;;1.10;0.47;;;;;;;;;;5084401;28;20032;-79
2023/10/31 09:12:00;;;;;;;1.75;0.32;;;;;;;;;;5043319;28;20081;-81
2023/10/31 09:14:25;;;;;;;0.90;0.32;;;;;;;;;;5051740;28;20396;-80
2023/10/31 09:16:51;;;;;;;1.20;0.40;;;;;;;;;;5094573;28;20047;-80
2023/10/31 09:19:17;;;;;;;0.98;0.50;;;;;;;;;;5080645;28;20043;-80
2023/10/31 09:21:43;;;;;;;1.05;0.50;;;;;;;;;;5033179;28;20041;-80
2023/10/31 09:24:09;;;;;;;0.82;0.45;;;;;;;;;;5053781;28;20040;-80
2023/10/31 09:26:39;;;;;;;2.67;0.80;;;;;;;;;;5029105;28;20414;-80
2023/10/31 09:29:05;;;;;;;1.35;0.60;;;;;;;;;;5057582;28;20761;-80
2023/10/31 09:31:33;;;;;;;1.58;0.70;;;;;;;;;;5035260;28;20032;-79
2023/10/31 09:33:59;;;;;;;3.45;0.93;;;;;;;;;;5048907;28;20048;-82
2023/10/31 09:36:24;;;;;;;2.40;0.70;;;;;;;;;;5054222;28;20556;-80
2023/10/31 09:38:50;;;;;;;2.03;0.93;;;;;;;;;;5060188;28;20369;-80
2023/10/31 09:41:15;;;;;;;1.60;0.70;;;;;;;;;;5058561;28;20637;-80
2023/10/31 09:43:42;;;;;;;1.42;0.70;;;;;;;;;;5056974;28;20039;-80
2023/10/31 09:46:09;;;;;;;1.77;0.77;;;;;;;;;;5030263;28;20389;-80
2023/10/31 09:48:35;;;;;;;;;;;;;;;;;;5065719;28;20035;-79
2023/10/31 09:51:13;;;;;;;1.67;0.70;;;;;;;;;;5058153;28;19912;-80
2023/10/31 09:53:39;;;;;;;2.00;0.50;;;;;;;;;;5051174;28;20040;-80
2023/10/31 09:56:06;;;;;;;1.83;0.80;;;;;;;;;;5075341;28;20028;-80
2023/10/31 09:58:41;;;;;;;2.33;0.80;;;;;;;;;;5042293;28;20032;-80
2023/10/31 10:01:06;;;;;;;1.20;0.60;;;;;;;;;;5039717;28;20525;-79
2023/10/31 10:03:35;;;;;;;2.17;0.70;;;;;;;;;;5057096;28;20033;-80
2023/10/31 10:06:02;;;;;;;2.00;0.60;;;;;;;;;;5043004;28;20032;-80
2023/10/31 10:08:27;;;;;;;2.50;0.68;;;;;;;;;;5064110;28;20040;-80
2023/10/31 10:10:55;;;;;;;1.80;0.68;;;;;;;;;;5073998;28;20523;-79
2023/10/31 10:13:21;;;;;;;1.95;0.70;;;;;;;;;;5041184;28;20032;-81
2023/10/31 10:15:54;;;;;;;1.63;0.63;;;;;;;;;;5043161;28;20703;-80
2023/10/31 10:18:30;;;;;;;1.73;0.70;;;;;;;;;;5054820;28;20159;-80
2023/10/31 10:20:58;;;;;;;1.92;0.80;;;;;;;;;;5037605;28;20095;-80
2023/10/31 10:23:28;;;;;;;3.38;0.80;;;;;;;;;;5054320;28;20033;-80
2023/10/31 10:25:54;;;;;;;1.92;0.90;;;;;;;;;;5060575;28;20036;-81
2023/10/31 10:28:20;;;;;;;6.30;0.70;;;;;;;;;;5048547;28;20123;-80
2023/10/31 10:30:49;;;;;;;2.42;0.70;;;;;;;;;;5034290;28;20120;-80
2023/10/31 10:33:15;;;;;;;3.45;0.93;;;;;;;;;;5072073;28;20398;-82
2023/10/31 10:35:52;;;;;;;2.65;0.90;;;;;;;;;;5063928;28;20066;-80
2023/10/31 10:38:19;;;;;;;2.10;0.90;;;;;;;;;;5075456;28;20055;-81
2023/10/31 10:40:48;;;;;;;2.80;0.90;;;;;;;;;;5074800;28;20032;-81
2023/10/31 10:43:22;;;;;;;2.25;0.95;;;;;;;;;;5067420;28;20033;-81
2023/10/31 10:45:56;;;;;;;2.28;1.10;;;;;;;;;;5074721;28;20075;-80
2023/10/31 10:48:22;;;;;;;3.47;1.00;;;;;;;;;;5074739;28;20031;-81
2023/10/31 10:50:51;;;;;;;2.20;1.10;;;;;;;;;;5069050;28;20036;-80
2023/10/31 10:53:25;;;;;;;1.92;1.00;;;;;;;;;;5067684;28;20131;-81
2023/10/31 10:55:57;;;;;;;1.73;1.00;;;;;;;;;;5078062;28;20126;-80
2023/10/31 10:58:27;;;;;;;2.72;1.00;;;;;;;;;;5097101;28;20042;-79
2023/10/31 11:00:54;;;;;;;1.90;1.05;;;;;;;;;;5093800;28;20518;-80
2023/10/31 11:03:22;;;;;;;3.53;1.20;;;;;;;;;;5094231;28;20043;-79
2023/10/31 11:05:47;;;;;;;2.92;1.23;;;;;;;;;;5084965;28;20428;-78
2023/10/31 11:08:22;;;;;;;2.45;1.25;;;;;;;;;;5046910;28;20124;-79
2023/10/31 11:10:48;;;;;;;3.33;1.20;;;;;;;;;;5036222;28;20032;-80
2023/10/31 11:13:19;;;;;;;2.20;1.10;;;;;;;;;;5076207;28;20032;-80
2023/10/31 11:15:48;;;;;;;3.35;1.08;;;;;;;;;;5055790;28;20047;-80
2023/10/31 11:18:14;;;;;;;2.58;1.20;;;;;;;;;;5048597;28;20071;-80
2023/10/31 11:20:40;;;;;;;2.53;1.20;;;;;;;;;;5034939;28;20035;-80
2023/10/31 11:23:06;;;;;;;2.03;1.00;;;;;;;;;;5063514;28;20538;-80
2023/10/31 11:25:32;;;;;;;3.35;1.08;;;;;;;;;;5056580;28;20059;-79
2023/10/31 11:28:11;;;;;;;2.35;1.00;;;;;;;;;;5048782;28;20109;-78
2023/10/31 11:30:36;;;;;;;2.50;1.10;;;;;;;;;;5079198;28;20032;-79
2023/10/31 11:33:03;;;;;;;2.22;0.98;;;;;;;;;;5077779;28;20032;-79
2023/10/31 11:35:33;;;;;;;3.42;1.10;;;;;;;;;;5068944;28;20127;-81
2023/10/31 11:38:08;;;;;;;2.50;0.93;;;;;;;;;;5049874;28;20372;-79
2023/10/31 11:41:03;;;;;;;2.22;1.05;;;;;;;;;;5062498;28;20051;-78
2023/10/31 11:43:40;;;;;;;1.60;0.77;;;;;;;;;;5070429;28;20364;-80
2023/10/31 11:46:07;;;;;;;1.88;0.98;;;;;;;;;;5069228;28;20696;-80
2023/10/31 11:48:48;;;;;;;2.40;1.00;;;;;;;;;;5071045;28;21017;-79
2023/10/31 11:51:13;;;;;;;2.28;0.88;;;;;;;;;;5075585;28;20040;-79
2023/10/31 11:53:55;;;;;;;2.08;0.90;;;;;;;;;;5064745;28;20082;-79
2023/10/31 11:56:21;;;;;;;2.00;0.90;;;;;;;;;;5066093;28;20057;-78
2023/10/31 11:59:00;;;;;;;1.33;0.68;;;;;;;;;;5074126;28;20036;-80
2023/10/31 12:01:26;;;;;;;2.15;0.73;;;;;;;;;;5087101;28;20903;-79
2023/10/31 12:03:51;;;;;;;1.35;0.60;;;;;;;;;;5068432;28;20031;-79
2023/10/31 12:06:24;;;;;;;2.17;0.82;;;;;;;;;;5095086;28;20030;-79
2023/10/31 12:08:59;;;;;;;1.40;0.63;;;;;;;;;;5079671;28;20031;-79
2023/10/31 12:11:25;;;;;;;1.50;0.60;;;;;;;;;;5061004;28;20043;-79
2023/10/31 12:14:09;;;;;;;1.35;0.60;;;;;;;;;;5083482;28;20036;-80
2023/10/31 12:16:34;;;;;;;1.73;0.60;;;;;;;;;;5080796;28;20371;-80
2023/10/31 12:19:06;;;;;;;2.00;0.80;;;;;;;;;;5077678;28;20035;-79
2023/10/31 12:21:38;;;;;;;1.23;0.50;;;;;;;;;;5078728;28;20063;-79
2023/10/31 12:24:12;;;;;;;1.73;0.45;;;;;;;;;;5067908;28;20567;-80
2023/10/31 12:26:38;;;;;;;1.58;0.60;;;;;;;;;;5051872;28;20040;-81
2023/10/31 12:29:12;;;;;;;1.90;0.70;;;;;;;;;;5074804;28;20044;-80
2023/10/31 12:31:57;;;;;;;2.30;0.60;;;;;;;;;;5073631;28;20035;-80
2023/10/31 12:34:24;;;;;;;2.10;0.50;;;;;;;;;;5073023;28;20083;-79
2023/10/31 12:36:51;;;;;;;1.35;0.60;;;;;;;;;;5050599;28;20029;-80
2023/10/31 12:39:20;;;;;;;2.15;0.52;;;;;;;;;;5090059;28;20036;-79
2023/10/31 12:41:46;;;;;;;2.00;0.45;;;;;;;;;;5049611;28;20392;-80
2023/10/31 12:44:17;;;;;;;1.67;0.40;;;;;;;;;;5055724;28;20038;-79
2023/10/31 12:46:42;;;;;;;1.00;0.30;;;;;;;;;;5050812;28;20032;-79
2023/10/31 12:49:13;;;;;;;1.10;0.43;;;;;;;;;;5042131;28;20094;-80
2023/10/31 12:51:38;;;;;;;1.35;0.45;;;;;;;;;;5042270;28;20043;-81
2023/10/31 12:54:25;;;;;;;0.90;0.40;;;;;;;;;;5051687;28;20039;-80
2023/10/31 12:56:49;;;;;;;2.28;0.50;;;;;;;;;;5075625;28;20567;-79
2023/10/31 12:59:18;;;;;;;1.27;0.50;;;;;;;;;;5096707;28;20028;-79
2023/10/31 13:01:44;;;;;;;1.23;0.50;;;;;;;;;;5086474;28;20049;-81
2023/10/31 13:04:09;;;;;;;1.70;0.60;;;;;;;;;;5093285;28;20256;-80
2023/10/31 13:06:35;;;;;;;0.85;0.40;;;;;;;;;;5061759;28;20054;-80
2023/10/31 13:09:01;;;;;;;1.38;0.57;;;;;;;;;;5066811;28;20035;-79
2023/10/31 13:11:50;;;;;;;2.97;0.57;;;;;;;;;;5060689;28;20082;-80
2023/10/31 13:14:15;;;;;;;1.25;0.50;;;;;;;;;;4956160;28;20478;-81
2023/10/31 13:16:43;;;;;;;0.60;0.32;;;;;;;;;;4940777;28;20083;-80
2023/10/31 13:19:09;;;;;;;1.17;0.40;;;;;;;;;;4965069;28;20534;-80
2023/10/31 13:21:37;;;;;;;2.15;0.40;;;;;;;;;;4937632;28;20069;-81
2023/10/31 13:24:03;;;;;;;;;;;;;;;;;;4960566;28;20094;-80
2023/10/31 13:26:29;;;;;;;1.55;0.50;;;;;;;;;;4944608;28;20005;-80
2023/10/31 13:28:55;;;;;;;0.77;0.30;;;;;;;;;;4956024;28;20047;-79
2023/10/31 13:31:20;;;;;;;0.98;0.40;;;;;;;;;;4957434;28;20090;-80
2023/10/31 13:33:46;;;;;;;1.58;0.30;;;;;;;;;;4962870;28;20398;-79
2023/10/31 13:36:32;;;;;;;0.90;0.40;;;;;;;;;;4935943;28;20046;-79
2023/10/31 13:38:57;;;;;;;1.58;0.47;;;;;;;;;;4880657;29;20045;-79
2023/10/31 13:41:23;;;;;;;2.55;0.43;;;;;;;;;;4866381;29;20529;-80
2023/10/31 13:43:48;;;;;;;0.93;0.40;;;;;;;;;;4875910;29;20140;-81
2023/10/31 13:46:23;;;;;;;0.90;0.40;;;;;;;;;;4859077;29;20048;-78
2023/10/31 13:48:49;;;;;;;1.20;0.30;;;;;;;;;;4850740;29;20052;-80
2023/10/31 13:51:14;;;;;;;0.60;0.28;;;;;;;;;;4887082;28;20047;-78
2023/10/31 13:54:09;;;;;;;3.05;0.40;;;;;;;;;;4929664;28;20043;-81
2023/10/31 13:56:35;;;;;;;1.08;0.30;;;;;;;;;;4940416;28;20499;-80
2023/10/31 13:59:08;;;;;;;1.23;0.50;;;;;;;;;;4956056;28;20047;-79
2023/10/31 14:01:34;;;;;;;1.20;0.40;;;;;;;;;;4942072;28;20039;-78
2023/10/31 14:04:08;;;;;;;1.00;0.40;;;;;;;;;;4921028;28;20173;-79
2023/10/31 14:06:34;;;;;;;2.50;0.50;;;;;;;;;;4939798;28;20085;-79
2023/10/31 14:09:04;;;;;;;0.95;0.40;;;;;;;;;;4921883;28;20035;-80
2023/10/31 14:11:30;;;;;;;1.13;0.28;;;;;;;;;;4952375;28;20069;-79
2023/10/31 14:13:56;;;;;;;1.67;0.40;;;;;;;;;;4950820;28;20625;-80
2023/10/31 14:16:25;;;;;;;0.90;0.40;;;;;;;;;;4989701;28;20112;-81
2023/10/31 14:18:50;;;;;;;1.42;0.40;;;;;;;;;;5012684;28;20412;-81
2023/10/31 14:21:16;;;;;;;2.95;0.50;;;;;;;;;;5014028;28;20041;-80
2023/10/31 14:23:41;;;;;;;1.17;0.40;;;;;;;;;;4996514;28;20470;-80
2023/10/31 14:26:10;;;;;;;1.52;0.45;;;;;;;;;;4985928;28;20046;-80
2023/10/31 14:28:38;;;;;;;1.38;0.40;;;;;;;;;;4986532;28;20762;-82
2023/10/31 14:31:03;;;;;;;0.82;0.40;;;;;;;;;;4975963;28;20042;-80
2023/10/31 14:33:29;;;;;;;1.10;0.40;;;;;;;;;;5031277;28;20044;-80
2023/10/31 14:36:05;;;;;;;0.80;0.35;;;;;;;;;;5074235;28;20040;-80
2023/10/31 14:38:33;;;;;;;2.33;0.50;;;;;;;;;;5055992;28;20561;-80
2023/10/31 14:40:58;;;;;;;2.75;0.70;;;;;;;;;;5058843;28;20471;-79
2023/10/31 14:43:23;;;;;;;1.90;0.60;;;;;;;;;;5035094;28;20035;-80
2023/10/31 14:45:49;;;;;;;1.48;0.50;;;;;;;;;;5062803;28;20093;-81
2023/10/31 14:48:17;;;;;;;1.70;0.50;;;;;;;;;;5049367;28;20042;-80